Time;durP1;ratioP1;P1;durP2;ratioP2;P2;SDS_P1;SDS_P2;PMS_P1;PMS_P2;Temp;Humidity;BMP_temperature;BMP_pressure;BME280_temperature;BME280_humidity;BME280_pressure;Samples;Min_cycle;Max_cycle;Signal;HPM_P1;HPM_P2
2021/03/31 00:00:45;;;;;;;8.70;2.88;;;10.40;63.40;;;;;;5053219;28;20021;-73
2021/03/31 00:03:16;;;;;;;7.05;3.33;;;10.60;62.70;;;;;;5053408;28;20049;-73
2021/03/31 00:05:42;;;;;;;11.97;3.70;;;10.70;61.80;;;;;;5052961;28;20036;-74
2021/03/31 00:08:08;;;;;;;7.28;2.83;;;10.80;61.60;;;;;;5052495;28;20060;-73
2021/03/31 00:10:41;;;;;;;6.07;2.83;;;10.90;61.30;;;;;;5053178;28;20029;-73
2021/03/31 00:13:07;;;;;;;9.05;4.10;;;10.80;61.50;;;;;;5053133;28;20104;-73
2021/03/31 00:15:34;;;;;;;15.48;4.70;;;10.80;61.50;;;;;;5053002;28;20118;-73
2021/03/31 00:17:59;;;;;;;6.65;3.90;;;10.70;62.00;;;;;;5052878;28;20045;-73
2021/03/31 00:20:26;;;;;;;6.80;3.58;;;10.80;61.70;;;;;;5034836;28;20106;-73
2021/03/31 00:22:51;;;;;;;8.20;3.65;;;10.60;61.80;;;;;;5052857;28;20110;-73
2021/03/31 00:25:18;;;;;;;12.85;3.88;;;10.50;62.30;;;;;;5052790;28;20481;-73
2021/03/31 00:27:44;;;;;;;10.50;3.00;;;10.30;63.00;;;;;;5052814;28;20389;-73
2021/03/31 00:30:13;;;;;;;7.25;3.10;;;10.20;63.30;;;;;;5052710;28;20075;-73
2021/03/31 00:32:39;;;;;;;6.25;3.00;;;10.20;63.50;;;;;;5052659;28;20025;-73
2021/03/31 00:35:06;;;;;;;8.43;3.05;;;10.00;64.10;;;;;;5052707;28;20035;-73
2021/03/31 00:37:33;;;;;;;7.50;2.75;;;10.00;64.40;;;;;;5052299;28;20519;-73
2021/03/31 00:40:00;;;;;;;6.60;2.80;;;10.20;63.70;;;;;;5052851;28;20031;-73
2021/03/31 00:42:26;;;;;;;4.88;3.17;;;10.20;63.50;;;;;;5052621;28;20052;-73
2021/03/31 00:44:51;;;;;;;11.32;3.30;;;10.10;64.10;;;;;;5052494;28;20021;-73
2021/03/31 00:47:17;;;;;;;7.28;3.05;;;10.00;64.20;;;;;;5052557;28;20068;-73
2021/03/31 00:49:43;;;;;;;9.77;3.22;;;10.10;64.10;;;;;;5034798;28;20033;-74
2021/03/31 00:52:09;;;;;;;8.13;3.08;;;10.30;63.60;;;;;;5052911;28;20025;-73
2021/03/31 00:54:35;;;;;;;6.85;2.72;;;10.40;62.90;;;;;;5052795;28;20206;-74
2021/03/31 00:57:01;;;;;;;7.72;2.70;;;10.50;62.30;;;;;;5052735;28;20083;-74
2021/03/31 00:59:28;;;;;;;5.53;3.05;;;10.60;61.90;;;;;;5052777;28;20021;-73
2021/03/31 01:01:54;;;;;;;8.90;3.55;;;10.30;62.60;;;;;;5034940;28;20052;-73
2021/03/31 01:04:20;;;;;;;8.30;2.67;;;10.00;63.80;;;;;;5052636;28;20429;-73
2021/03/31 01:06:45;;;;;;;4.50;2.95;;;9.90;64.10;;;;;;5052852;28;20052;-73
2021/03/31 01:09:11;;;;;;;11.77;3.17;;;10.00;63.40;;;;;;5052556;28;20393;-73
2021/03/31 01:12:02;;;;;;;6.00;2.55;;;10.20;62.50;;;;;;5034752;28;20029;-74
2021/03/31 01:14:47;;;;;;;5.82;2.83;;;10.30;61.90;;;;;;5052580;28;20032;-74
2021/03/31 01:17:29;;;;;;;11.45;2.65;;;10.40;61.40;;;;;;5034840;28;20025;-73
2021/03/31 01:20:03;;;;;;;7.10;3.00;;;10.50;61.30;;;;;;5056688;28;20017;-73
2021/03/31 01:23:01;;;;;;;3.95;2.47;;;10.60;61.00;;;;;;5038867;28;20068;-73
2021/03/31 01:25:47;;;;;;;6.55;2.60;;;10.50;61.00;;;;;;5003689;28;20037;-73
2021/03/31 01:28:51;;;;;;;9.60;3.80;;;10.30;62.20;;;;;;5038682;28;20056;-73
2021/03/31 01:31:45;;;;;;;7.40;3.67;;;10.00;63.20;;;;;;5056610;28;20033;-74
2021/03/31 01:34:29;;;;;;;5.85;3.45;;;9.80;64.00;;;;;;5056484;28;20032;-74
2021/03/31 01:36:57;;;;;;;7.78;3.35;;;9.60;64.60;;;;;;5056393;28;20144;-74
2021/03/31 01:39:23;;;;;;;9.80;2.97;;;9.60;65.00;;;;;;5056786;28;20025;-74
2021/03/31 01:41:51;;;;;;;7.20;3.40;;;9.50;65.30;;;;;;5038410;28;20025;-74
2021/03/31 01:44:18;;;;;;;9.68;3.25;;;9.40;65.60;;;;;;5056240;28;20025;-73
2021/03/31 01:46:51;;;;;;;9.38;3.25;;;9.10;66.20;;;;;;5056143;28;20079;-73
2021/03/31 01:49:19;;;;;;;13.52;3.85;;;9.10;66.70;;;;;;5056365;28;20387;-73
2021/03/31 01:51:46;;;;;;;6.65;3.40;;;9.10;66.90;;;;;;5038189;28;20025;-73
2021/03/31 01:54:15;;;;;;;14.68;3.38;;;9.30;66.40;;;;;;5056088;28;20103;-73
2021/03/31 01:56:42;;;;;;;14.38;3.35;;;9.30;66.10;;;;;;5056357;28;20370;-73
2021/03/31 01:59:08;;;;;;;9.00;3.38;;;9.30;66.30;;;;;;5055903;28;20033;-74
2021/03/31 02:01:35;;;;;;;12.05;5.05;;;9.20;66.50;;;;;;5056031;28;20045;-73
2021/03/31 02:04:00;;;;;;;8.13;3.58;;;9.30;66.20;;;;;;5055848;28;20032;-73
2021/03/31 02:06:32;;;;;;;8.43;3.10;;;9.40;65.80;;;;;;5055895;28;20021;-73
2021/03/31 02:08:59;;;;;;;10.38;2.55;;;9.50;65.60;;;;;;5038017;28;20463;-73
2021/03/31 02:11:26;;;;;;;6.18;3.53;;;9.50;65.40;;;;;;5055678;28;20032;-74
2021/03/31 02:13:53;;;;;;;7.28;3.10;;;9.40;66.10;;;;;;5037787;28;20025;-74
2021/03/31 02:16:20;;;;;;;8.32;3.03;;;9.30;66.70;;;;;;5055661;28;20028;-73
2021/03/31 02:18:46;;;;;;;5.65;3.00;;;9.30;67.10;;;;;;5055413;28;20104;-74
2021/03/31 02:21:13;;;;;;;11.15;3.20;;;9.20;67.40;;;;;;5055183;28;20021;-74
2021/03/31 02:23:40;;;;;;;9.57;3.55;;;9.20;67.80;;;;;;5055530;28;20029;-73
2021/03/31 02:26:06;;;;;;;5.97;3.10;;;9.00;68.30;;;;;;5055412;28;20024;-73
2021/03/31 02:28:32;;;;;;;8.35;2.95;;;8.90;69.20;;;;;;5055350;28;20388;-74
2021/03/31 02:30:58;;;;;;;7.40;3.20;;;8.90;69.00;;;;;;5054583;28;20039;-73
2021/03/31 02:33:27;;;;;;;5.78;3.25;;;8.90;68.90;;;;;;5055408;28;20025;-73
2021/03/31 02:35:53;;;;;;;7.53;3.55;;;9.00;68.70;;;;;;5055233;28;20029;-73
2021/03/31 02:38:20;;;;;;;6.30;3.45;;;8.80;68.40;;;;;;5055015;28;20033;-73
2021/03/31 02:40:48;;;;;;;13.98;3.67;;;8.50;68.90;;;;;;5055192;28;20104;-73
2021/03/31 02:43:15;;;;;;;6.70;3.88;;;8.20;69.80;;;;;;5055173;28;20029;-73
2021/03/31 02:45:47;;;;;;;10.93;3.97;;;8.30;70.70;;;;;;5037140;28;20384;-74
2021/03/31 02:48:15;;;;;;;6.03;3.38;;;8.40;70.20;;;;;;5055058;28;20052;-73
2021/03/31 02:50:42;;;;;;;6.55;3.60;;;8.30;69.80;;;;;;5054881;28;20033;-73
2021/03/31 02:53:09;;;;;;;4.45;2.90;;;8.20;70.50;;;;;;5054966;28;20032;-74
2021/03/31 02:55:37;;;;;;;7.55;3.75;;;8.40;70.50;;;;;;5054975;28;20036;-73
2021/03/31 02:58:05;;;;;;;12.45;3.70;;;8.40;70.50;;;;;;5054775;28;20515;-73
2021/03/31 03:00:31;;;;;;;8.73;3.72;;;8.40;70.80;;;;;;5054709;28;20052;-73
2021/03/31 03:02:57;;;;;;;6.50;3.58;;;8.60;70.20;;;;;;5054767;28;20021;-74
2021/03/31 03:05:23;;;;;;;7.07;2.88;;;8.50;69.90;;;;;;5054633;28;20488;-73
2021/03/31 03:07:49;;;;;;;6.80;3.58;;;8.40;70.60;;;;;;5054697;28;20052;-73
2021/03/31 03:10:16;;;;;;;7.35;3.20;;;8.30;70.50;;;;;;5054724;28;20033;-73
2021/03/31 03:12:46;;;;;;;21.67;4.13;;;8.20;70.30;;;;;;5054592;28;20033;-73
2021/03/31 03:15:16;;;;;;;10.65;3.80;;;8.00;70.50;;;;;;5054587;28;20028;-73
2021/03/31 03:17:42;;;;;;;9.02;3.50;;;7.70;71.60;;;;;;5054342;28;20476;-73
2021/03/31 03:20:10;;;;;;;11.13;3.90;;;7.50;72.20;;;;;;5036616;28;20025;-73
2021/03/31 03:22:38;;;;;;;8.15;3.40;;;7.40;72.60;;;;;;5054403;28;20487;-73
2021/03/31 03:25:06;;;;;;;6.20;3.53;;;7.50;74.00;;;;;;5054489;28;20130;-73
2021/03/31 03:27:34;;;;;;;9.52;3.55;;;7.80;73.50;;;;;;5054218;28;20443;-73
2021/03/31 03:30:00;;;;;;;17.77;4.00;;;7.90;72.40;;;;;;5036411;28;20055;-73
2021/03/31 03:32:26;;;;;;;11.88;3.65;;;8.10;71.60;;;;;;5054193;28;20025;-73
2021/03/31 03:34:54;;;;;;;12.65;3.47;;;8.20;71.70;;;;;;5053976;28;20481;-73
2021/03/31 03:37:20;;;;;;;11.50;3.70;;;8.10;71.30;;;;;;5053903;28;20033;-73
2021/03/31 03:39:46;;;;;;;7.10;3.08;;;7.90;70.90;;;;;;5036128;28;20032;-73
2021/03/31 03:42:13;;;;;;;7.38;3.03;;;7.60;71.30;;;;;;5053690;28;20078;-74
2021/03/31 03:44:39;;;;;;;10.32;3.45;;;7.50;73.30;;;;;;5019619;28;20540;-73
2021/03/31 03:47:06;;;;;;;9.70;3.75;;;7.60;74.00;;;;;;5053804;28;20020;-74
2021/03/31 03:49:37;;;;;;;10.55;3.50;;;7.70;73.60;;;;;;5053645;28;20025;-74
2021/03/31 03:52:07;;;;;;;25.42;4.35;;;8.00;72.70;;;;;;5053776;28;20025;-73
2021/03/31 03:54:33;;;;;;;10.88;3.05;;;8.00;71.60;;;;;;5053787;28;20381;-73
2021/03/31 03:56:58;;;;;;;9.00;3.05;;;7.90;71.50;;;;;;5035818;28;20025;-73
2021/03/31 03:59:27;;;;;;;10.95;3.17;;;7.80;72.40;;;;;;5053604;28;20064;-74
2021/03/31 04:01:54;;;;;;;4.72;3.17;;;7.70;72.80;;;;;;5035837;28;20017;-73
2021/03/31 04:04:21;;;;;;;16.95;3.28;;;7.70;73.10;;;;;;5053403;28;20031;-73
2021/03/31 04:06:47;;;;;;;6.80;3.28;;;7.80;72.50;;;;;;5053373;28;20473;-73
2021/03/31 04:09:13;;;;;;;6.50;2.70;;;8.00;71.60;;;;;;5053557;28;20079;-73
2021/03/31 04:11:41;;;;;;;9.10;3.40;;;8.00;71.00;;;;;;5035604;28;20029;-74
2021/03/31 04:14:08;;;;;;;12.18;6.55;;;8.00;70.60;;;;;;5053511;28;20083;-73
2021/03/31 04:16:36;;;;;;;14.30;3.35;;;8.10;70.60;;;;;;5053239;28;20057;-73
2021/03/31 04:19:12;;;;;;;9.00;3.33;;;8.20;70.40;;;;;;5053040;28;20029;-73
2021/03/31 04:21:38;;;;;;;17.55;3.25;;;8.20;70.30;;;;;;5035092;28;20025;-73
2021/03/31 04:24:04;;;;;;;14.70;3.13;;;8.20;71.20;;;;;;5053108;28;20017;-73
2021/03/31 04:26:31;;;;;;;9.70;2.67;;;8.20;70.50;;;;;;5053202;28;20029;-73
2021/03/31 04:28:57;;;;;;;14.38;2.88;;;8.10;70.40;;;;;;5053140;28;20150;-73
2021/03/31 04:31:25;;;;;;;12.35;2.85;;;8.10;70.60;;;;;;5052999;28;20477;-74
2021/03/31 04:33:52;;;;;;;8.98;2.78;;;8.20;70.50;;;;;;5052921;28;20021;-73
2021/03/31 04:36:19;;;;;;;13.07;3.95;;;8.00;70.30;;;;;;5035213;28;20439;-73
2021/03/31 04:38:49;;;;;;;10.00;3.83;;;7.90;70.60;;;;;;5052840;28;20179;-74
2021/03/31 04:41:16;;;;;;;15.10;3.67;;;7.80;71.30;;;;;;5052893;28;20059;-73
2021/03/31 04:44:03;;;;;;;8.07;3.05;;;7.60;71.90;;;;;;5038355;28;20487;-73
2021/03/31 04:46:30;;;;;;;7.78;2.97;;;7.60;73.10;;;;;;5052636;28;20096;-73
2021/03/31 04:48:55;;;;;;;13.38;3.28;;;7.70;72.30;;;;;;5052829;28;20060;-73
2021/03/31 04:51:21;;;;;;;6.97;3.08;;;7.40;72.20;;;;;;5052634;28;20537;-73
2021/03/31 04:53:47;;;;;;;14.77;2.70;;;7.20;73.00;;;;;;5051919;28;20057;-73
2021/03/31 04:56:13;;;;;;;9.48;3.80;;;7.20;73.70;;;;;;5034807;28;20520;-73
2021/03/31 04:58:38;;;;;;;7.03;3.30;;;7.30;73.70;;;;;;5052611;28;20033;-74
2021/03/31 05:01:04;;;;;;;8.05;2.45;;;7.30;73.20;;;;;;5052631;28;20427;-74
2021/03/31 05:03:30;;;;;;;12.10;2.88;;;7.40;72.90;;;;;;5052700;28;20017;-73
2021/03/31 05:05:56;;;;;;;15.63;3.28;;;7.60;72.30;;;;;;5052576;28;20031;-73
2021/03/31 05:08:22;;;;;;;14.18;4.95;;;7.70;71.40;;;;;;5034462;28;20075;-74
2021/03/31 05:10:47;;;;;;;12.05;2.47;;;7.70;71.50;;;;;;5052263;28;20029;-73
2021/03/31 05:13:13;;;;;;;14.52;3.40;;;7.60;71.50;;;;;;5052326;28;20068;-74
2021/03/31 05:15:40;;;;;;;9.52;2.65;;;7.60;71.90;;;;;;5052367;28;20033;-73
2021/03/31 05:18:07;;;;;;;33.28;3.58;;;7.50;72.20;;;;;;5052387;28;20036;-73
2021/03/31 05:20:33;;;;;;;13.85;3.13;;;7.70;71.80;;;;;;5052357;28;20029;-73
2021/03/31 05:22:59;;;;;;;32.35;3.90;;;7.70;71.60;;;;;;5052386;28;20020;-73
2021/03/31 05:25:25;;;;;;;14.48;3.60;;;7.80;71.50;;;;;;5052371;28;20586;-73
2021/03/31 05:27:51;;;;;;;15.40;3.70;;;7.80;71.20;;;;;;5034501;28;20067;-73
2021/03/31 05:30:17;;;;;;;15.15;4.13;;;7.80;71.60;;;;;;5052336;28;20083;-74
2021/03/31 05:32:43;;;;;;;15.57;4.40;;;7.90;71.50;;;;;;5052665;28;20034;-73
2021/03/31 05:35:09;;;;;;;22.70;5.32;;;8.10;70.80;;;;;;5051031;28;20116;-73
2021/03/31 05:37:35;;;;;;;14.93;4.13;;;8.20;70.20;;;;;;5051808;28;20029;-73
2021/03/31 05:40:02;;;;;;;10.90;4.80;;;8.10;69.90;;;;;;5032801;28;20029;-74
2021/03/31 05:42:29;;;;;;;26.13;3.67;;;8.20;70.10;;;;;;5051251;28;20025;-73
2021/03/31 05:44:56;;;;;;;58.90;5.20;;;8.10;70.80;;;;;;5051767;28;20100;-73
2021/03/31 05:47:32;;;;;;;27.77;4.25;;;8.10;70.80;;;;;;5058901;28;20374;-73
2021/03/31 05:49:58;;;;;;;29.52;5.75;;;8.20;70.50;;;;;;5051890;28;20109;-73
2021/03/31 05:52:24;;;;;;;15.73;4.03;;;8.30;70.80;;;;;;5033873;28;20389;-74
2021/03/31 05:54:51;;;;;;;12.02;3.40;;;8.50;70.30;;;;;;5034143;28;20116;-73
2021/03/31 05:57:20;;;;;;;17.05;4.18;;;8.60;70.20;;;;;;5051590;28;20532;-73
2021/03/31 05:59:46;;;;;;;17.25;3.72;;;8.50;70.70;;;;;;5052055;28;20535;-74
2021/03/31 06:02:15;;;;;;;27.00;4.75;;;8.50;71.70;;;;;;5033814;28;20479;-73
2021/03/31 06:04:42;;;;;;;26.65;4.07;;;8.40;72.90;;;;;;5035718;28;20025;-73
2021/03/31 06:07:09;;;;;;;17.55;3.25;;;8.30;74.50;;;;;;5055603;28;20025;-73
2021/03/31 06:09:34;;;;;;;9.18;3.10;;;8.40;73.00;;;;;;5055250;28;20020;-74
2021/03/31 06:12:02;;;;;;;10.30;2.97;;;8.60;71.10;;;;;;5021116;28;20488;-73
2021/03/31 06:14:37;;;;;;;16.88;3.05;;;8.80;69.80;;;;;;5055189;28;20028;-73
2021/03/31 06:17:05;;;;;;;15.98;3.40;;;9.00;68.00;;;;;;5037283;28;20047;-73
2021/03/31 06:19:33;;;;;;;8.18;2.33;;;9.20;67.00;;;;;;5054946;28;20472;-73
2021/03/31 06:22:19;;;;;;;7.18;2.35;;;9.30;66.00;;;;;;5054908;28;20024;-73
2021/03/31 06:25:06;;;;;;;6.40;1.98;;;9.40;66.20;;;;;;5037148;28;20021;-73
2021/03/31 06:27:33;;;;;;;6.72;2.17;;;9.60;65.60;;;;;;5055189;28;20503;-73
2021/03/31 06:30:03;;;;;;;11.85;2.90;;;9.80;65.40;;;;;;5054799;28;20481;-73
2021/03/31 06:32:44;;;;;;;13.43;2.70;;;9.90;64.90;;;;;;5055006;28;20029;-74
2021/03/31 06:35:24;;;;;;;18.17;3.15;;;10.10;64.50;;;;;;5055079;28;20021;-74
2021/03/31 06:37:50;;;;;;;11.90;2.17;;;10.20;63.80;;;;;;5054538;28;20029;-74
2021/03/31 06:40:31;;;;;;;3.95;2.10;;;10.40;63.30;;;;;;5054971;28;20027;-74
2021/03/31 06:43:16;;;;;;;14.77;3.13;;;10.40;62.70;;;;;;5057288;28;20488;-73
2021/03/31 06:48:21;;;;;;;11.40;2.83;;;10.60;61.90;;;;;;5036467;28;20385;-74
2021/03/31 06:50:47;;;;;;;12.85;3.33;;;10.70;61.40;;;;;;5049942;28;20029;-73
2021/03/31 06:53:13;;;;;;;15.73;3.17;;;10.90;60.60;;;;;;5036421;28;20032;-74
2021/03/31 06:55:39;;;;;;;19.08;2.65;;;11.10;60.60;;;;;;5054221;28;20035;-74
2021/03/31 06:58:07;;;;;;;12.80;2.20;;;11.10;60.60;;;;;;5054312;28;20025;-74
2021/03/31 07:00:39;;;;;;;7.80;1.88;;;11.20;60.50;;;;;;5054038;28;20067;-73
2021/03/31 07:03:07;;;;;;;15.35;3.13;;;11.30;60.40;;;;;;5035625;28;20049;-74
2021/03/31 07:05:36;;;;;;;10.02;2.30;;;11.40;60.60;;;;;;5034478;28;20388;-73
2021/03/31 07:08:07;;;;;;;6.25;2.08;;;11.50;60.30;;;;;;5035236;28;20024;-73
2021/03/31 07:10:42;;;;;;;14.70;2.60;;;11.60;60.70;;;;;;5052757;28;20079;-74
2021/03/31 07:13:08;;;;;;;14.23;2.45;;;11.70;61.40;;;;;;5053081;28;20480;-73
2021/03/31 07:15:35;;;;;;;11.50;2.47;;;11.80;61.70;;;;;;5052224;28;20028;-73
2021/03/31 07:18:01;;;;;;;8.80;1.75;;;11.90;61.40;;;;;;5052503;28;20029;-74
2021/03/31 07:20:29;;;;;;;7.53;2.20;;;12.00;60.40;;;;;;5034431;28;20021;-75
2021/03/31 07:22:58;;;;;;;8.65;1.90;;;12.10;59.90;;;;;;5052601;28;20029;-74
2021/03/31 07:25:24;;;;;;;8.68;2.25;;;12.20;59.70;;;;;;5052940;28;20108;-73
2021/03/31 07:27:51;;;;;;;11.30;2.05;;;12.20;59.70;;;;;;5052345;28;20116;-73
2021/03/31 07:30:19;;;;;;;5.47;1.88;;;12.30;59.30;;;;;;5052933;28;20025;-73
2021/03/31 07:33:04;;;;;;;8.70;2.53;;;12.40;58.80;;;;;;5035120;28;20030;-74
2021/03/31 07:35:33;;;;;;;4.90;2.13;;;12.60;58.50;;;;;;5053332;28;20078;-73
2021/03/31 07:38:03;;;;;;;9.70;2.40;;;12.70;57.60;;;;;;5034173;28;20542;-74
2021/03/31 07:40:30;;;;;;;4.68;1.98;;;12.80;57.50;;;;;;5017052;28;20463;-74
2021/03/31 07:43:13;;;;;;;7.63;2.92;;;13.00;56.20;;;;;;5052212;28;20021;-74
2021/03/31 07:45:47;;;;;;;;;;;13.20;55.80;;;;;;5033717;28;20032;-74
2021/03/31 07:48:13;;;;;;;13.85;2.30;;;13.30;55.70;;;;;;5052565;28;20406;-74
2021/03/31 07:50:39;;;;;;;7.85;2.05;;;13.40;55.90;;;;;;5017224;28;20108;-75
2021/03/31 07:53:07;;;;;;;10.40;2.00;;;13.60;56.20;;;;;;5052176;28;20033;-74
2021/03/31 07:55:37;;;;;;;8.40;1.83;;;13.80;54.80;;;;;;5033742;28;20540;-74
2021/03/31 07:58:30;;;;;;;6.53;2.42;;;13.90;55.40;;;;;;5052189;28;20049;-74
2021/03/31 08:01:03;;;;;;;4.50;1.50;;;13.90;56.00;;;;;;5048096;28;20025;-75
2021/03/31 08:03:34;;;;;;;19.23;2.60;;;14.00;52.10;;;;;;5052853;28;20100;-74
2021/03/31 08:06:13;;;;;;;13.40;1.90;;;14.10;51.10;;;;;;5052757;28;20113;-74
2021/03/31 08:08:45;;;;;;;3.50;1.52;;;14.20;49.00;;;;;;5050517;28;20037;-74
2021/03/31 08:11:12;;;;;;;6.90;2.00;;;14.30;47.80;;;;;;5052764;28;20082;-74
2021/03/31 08:13:41;;;;;;;10.00;1.63;;;14.30;47.60;;;;;;5052371;28;20028;-74
2021/03/31 08:16:34;;;;;;;4.40;1.65;;;14.40;49.00;;;;;;5052792;28;20408;-74
2021/03/31 08:19:02;;;;;;;11.68;2.10;;;14.40;49.20;;;;;;5034332;28;20397;-74
2021/03/31 08:21:30;;;;;;;10.30;1.95;;;14.60;51.00;;;;;;5052475;28;20013;-74
2021/03/31 08:23:57;;;;;;;6.45;1.80;;;14.80;50.40;;;;;;5052291;28;20017;-75
2021/03/31 08:26:41;;;;;;;10.18;2.13;;;14.90;49.10;;;;;;5052387;28;20024;-74
2021/03/31 08:29:26;;;;;;;7.03;1.98;;;15.10;47.10;;;;;;5034407;28;20517;-74
2021/03/31 08:31:53;;;;;;;8.00;1.80;;;15.10;46.30;;;;;;5043441;28;20031;-74
2021/03/31 08:34:19;;;;;;;16.80;2.45;;;15.30;45.30;;;;;;5034611;28;20544;-73
2021/03/31 08:36:45;;;;;;;8.85;2.55;;;15.60;45.60;;;;;;5052058;28;20041;-73
2021/03/31 08:39:13;;;;;;;13.68;2.15;;;15.90;46.20;;;;;;5051936;28;20075;-73
2021/03/31 08:41:40;;;;;;;7.85;1.98;;;16.10;45.10;;;;;;5051857;28;20436;-74
2021/03/31 08:44:23;;;;;;;6.55;2.08;;;16.10;45.70;;;;;;5052050;28;20116;-74
2021/03/31 08:46:51;;;;;;;9.50;2.10;;;16.40;46.00;;;;;;5050427;28;20107;-73
2021/03/31 08:49:30;;;;;;;10.55;2.20;;;16.60;46.50;;;;;;5050369;28;20544;-74
2021/03/31 08:51:59;;;;;;;15.60;3.45;;;17.00;47.40;;;;;;5032510;28;20459;-74
2021/03/31 08:54:49;;;;;;;13.75;2.53;;;17.20;46.20;;;;;;5054162;28;20416;-74
2021/03/31 08:57:27;;;;;;;12.88;2.97;;;17.30;45.40;;;;;;5048746;28;20024;-75
2021/03/31 08:59:58;;;;;;;14.20;2.53;;;17.50;44.80;;;;;;5028445;28;20025;-74
2021/03/31 09:02:29;;;;;;;9.40;2.10;;;17.90;44.20;;;;;;5050356;28;20072;-74
2021/03/31 09:04:57;;;;;;;12.33;3.17;;;18.30;44.20;;;;;;5049926;28;20013;-74
2021/03/31 09:07:24;;;;;;;18.42;3.80;;;18.60;42.00;;;;;;5050414;28;20150;-74
2021/03/31 09:09:51;;;;;;;18.08;2.95;;;18.50;38.80;;;;;;5049835;28;20028;-74
2021/03/31 09:12:19;;;;;;;7.88;3.15;;;18.20;39.40;;;;;;5050392;28;20381;-74
2021/03/31 09:14:53;;;;;;;10.90;2.53;;;18.20;39.50;;;;;;5052621;28;20024;-74
2021/03/31 09:17:21;;;;;;;12.88;4.65;;;18.60;40.00;;;;;;5050088;28;20025;-74
2021/03/31 09:19:49;;;;;;;16.25;3.40;;;19.10;38.70;;;;;;5050590;28;20025;-74
2021/03/31 09:22:25;;;;;;;6.30;2.15;;;19.10;37.20;;;;;;5050762;28;20032;-74
2021/03/31 09:24:53;;;;;;;9.05;2.67;;;19.20;38.20;;;;;;5050662;28;20524;-74
2021/03/31 09:27:28;;;;;;;9.32;2.83;;;19.10;37.60;;;;;;5050774;28;20483;-74
2021/03/31 09:29:56;;;;;;;6.93;2.63;;;19.50;37.80;;;;;;5032522;28;20033;-76
2021/03/31 09:35:09;;;;;;;14.60;2.25;;;19.70;37.10;;;;;;5050737;28;20085;-74
2021/03/31 09:37:39;;;;;;;10.30;2.17;;;19.90;37.20;;;;;;5050116;28;20036;-74
2021/03/31 09:40:06;;;;;;;13.48;2.53;;;20.30;36.70;;;;;;5053362;28;20044;-74
2021/03/31 09:42:38;;;;;;;12.38;3.53;;;20.50;37.00;;;;;;5054497;28;20029;-75
2021/03/31 09:45:09;;;;;;;7.85;2.38;;;20.50;35.40;;;;;;5037729;28;20025;-75
2021/03/31 09:47:38;;;;;;;13.95;2.95;;;21.30;34.70;;;;;;5055651;28;20464;-74
2021/03/31 09:50:11;;;;;;;12.88;2.88;;;21.80;34.00;;;;;;5055126;28;20380;-75
2021/03/31 09:52:38;;;;;;;16.00;3.40;;;22.30;32.90;;;;;;5054908;28;20025;-76
2021/03/31 09:55:07;;;;;;;15.90;3.58;;;22.30;31.50;;;;;;5053872;28;20388;-75
2021/03/31 09:57:37;;;;;;;12.45;2.90;;;22.80;32.20;;;;;;5053599;28;20029;-74
2021/03/31 10:00:08;;;;;;;13.68;3.35;;;21.90;31.30;;;;;;5053120;28;20017;-75
2021/03/31 10:02:35;;;;;;;19.52;3.35;;;22.20;32.20;;;;;;5054592;28;20064;-74
2021/03/31 10:05:04;;;;;;;15.65;3.28;;;22.10;32.40;;;;;;5054469;28;20029;-74
2021/03/31 10:07:30;;;;;;;7.28;2.17;;;22.70;32.30;;;;;;5055282;28;20021;-74
2021/03/31 10:09:56;;;;;;;7.40;2.28;;;23.00;31.50;;;;;;5055074;28;20053;-74
2021/03/31 10:12:33;;;;;;;7.35;2.35;;;22.00;31.20;;;;;;5054921;28;20056;-74
2021/03/31 10:15:01;;;;;;;4.93;1.80;;;21.60;32.50;;;;;;5055117;28;20017;-74
2021/03/31 10:17:29;;;;;;;6.55;2.35;;;22.10;33.50;;;;;;5054758;28;20070;-74
2021/03/31 10:20:17;;;;;;;10.68;2.28;;;22.70;32.10;;;;;;5055098;28;20025;-74
2021/03/31 10:22:52;;;;;;;10.18;1.80;;;23.40;32.10;;;;;;5054776;28;20036;-74
2021/03/31 10:25:29;;;;;;;10.25;2.60;;;24.10;29.90;;;;;;5034788;28;20022;-74
2021/03/31 10:27:56;;;;;;;6.80;2.30;;;24.90;30.60;;;;;;5034570;28;20389;-74
2021/03/31 10:30:33;;;;;;;14.15;2.20;;;25.30;29.20;;;;;;5035273;28;20021;-74
2021/03/31 10:33:00;;;;;;;8.50;2.30;;;25.60;29.10;;;;;;5052298;28;20101;-74
2021/03/31 10:38:22;;;;;;;7.50;2.10;;;24.70;29.00;;;;;;5054153;28;20035;-75
2021/03/31 10:47:02;;;;;;;6.70;3.22;;;25.80;28.80;;;;;;5054560;28;20031;-74
2021/03/31 10:52:07;;;;;;;9.52;3.97;;;26.20;29.10;;;;;;5031701;28;20031;-74
2021/03/31 10:54:33;;;;;;;12.25;4.07;;;26.60;28.70;;;;;;5060922;28;20048;-74
2021/03/31 10:57:09;;;;;;;16.92;4.18;;;26.60;28.60;;;;;;5056446;28;20059;-74
2021/03/31 10:59:35;;;;;;;10.95;4.18;;;26.80;28.40;;;;;;5036440;28;20535;-74
2021/03/31 11:02:01;;;;;;;13.18;3.83;;;27.00;28.40;;;;;;5054212;28;20108;-74
2021/03/31 11:04:27;;;;;;;13.00;4.97;;;27.00;28.30;;;;;;5036281;28;20021;-74
2021/03/31 11:06:53;;;;;;;10.02;4.38;;;27.10;27.90;;;;;;5054264;28;20032;-74
2021/03/31 11:09:19;;;;;;;9.45;3.97;;;27.10;27.70;;;;;;5053892;28;20068;-74
2021/03/31 11:11:45;;;;;;;20.33;4.80;;;27.10;27.80;;;;;;5053424;28;20031;-75
2021/03/31 11:14:12;;;;;;;8.50;3.38;;;27.10;28.00;;;;;;5053460;28;20540;-74
2021/03/31 11:16:42;;;;;;;12.90;4.65;;;27.20;27.80;;;;;;5053721;28;20013;-74
2021/03/31 11:19:39;;;;;;;10.05;3.35;;;27.20;27.10;;;;;;5053354;28;20033;-74
2021/03/31 11:27:29;;;;;;;16.58;4.95;;;27.50;26.30;;;;;;5053763;28;20025;-74
2021/03/31 11:29:54;;;;;;;12.57;4.47;;;27.90;27.30;;;;;;5053251;28;20036;-74
2021/03/31 11:32:20;;;;;;;17.23;4.90;;;27.80;26.50;;;;;;5053652;28;20455;-74
2021/03/31 11:34:46;;;;;;;9.73;4.63;;;28.00;26.80;;;;;;5053432;28;20021;-74
2021/03/31 11:37:12;;;;;;;7.57;3.60;;;27.80;26.00;;;;;;5053114;28;20029;-74
2021/03/31 11:39:37;;;;;;;19.35;4.45;;;27.60;26.10;;;;;;5053239;28;20405;-74
2021/03/31 11:42:04;;;;;;;13.32;4.80;;;28.10;26.20;;;;;;5035003;28;20028;-74
2021/03/31 11:44:31;;;;;;;15.82;4.85;;;27.60;26.80;;;;;;5053460;28;20071;-74
2021/03/31 11:46:57;;;;;;;8.23;4.50;;;26.50;27.90;;;;;;5052036;28;20481;-75
2021/03/31 11:49:22;;;;;;;13.70;4.85;;;26.40;28.30;;;;;;5051608;28;20040;-74
2021/03/31 11:51:48;;;;;;;11.68;4.07;;;26.80;28.00;;;;;;5051959;28;20040;-74
2021/03/31 11:54:14;;;;;;;9.68;3.92;;;27.20;27.50;;;;;;5033808;28;20029;-75
2021/03/31 11:56:40;;;;;;;13.25;3.55;;;27.00;26.80;;;;;;5051840;28;20385;-75
2021/03/31 11:59:06;;;;;;;14.23;3.42;;;27.40;26.50;;;;;;5050819;28;20029;-74
2021/03/31 12:01:34;;;;;;;10.88;4.00;;;27.90;26.10;;;;;;5051633;28;20511;-75
2021/03/31 12:04:00;;;;;;;14.77;3.90;;;28.00;25.90;;;;;;5033473;28;20024;-74
2021/03/31 12:06:25;;;;;;;8.77;3.13;;;28.30;25.50;;;;;;5051711;28;20489;-75
2021/03/31 12:08:52;;;;;;;7.40;3.80;;;28.20;26.40;;;;;;5051436;28;20029;-75
2021/03/31 12:11:18;;;;;;;6.57;3.58;;;28.20;25.60;;;;;;5050956;28;20043;-74
2021/03/31 12:13:44;;;;;;;8.93;3.42;;;28.40;26.20;;;;;;5033283;28;20099;-75
2021/03/31 12:16:10;;;;;;;6.47;3.33;;;28.60;25.60;;;;;;5050920;28;20074;-75
2021/03/31 12:18:36;;;;;;;11.68;3.97;;;28.60;25.70;;;;;;5051295;28;20075;-75
2021/03/31 12:21:02;;;;;;;15.95;4.25;;;28.40;25.70;;;;;;5033077;28;20135;-75
2021/03/31 12:23:28;;;;;;;13.43;3.45;;;27.40;25.10;;;;;;5051313;28;20029;-74
2021/03/31 12:25:55;;;;;;;6.22;3.20;;;27.40;25.10;;;;;;5051140;28;20033;-76
2021/03/31 12:28:24;;;;;;;11.60;3.63;;;27.40;25.60;;;;;;5057915;28;20094;-74
2021/03/31 12:30:50;;;;;;;17.08;3.63;;;27.20;25.60;;;;;;5054426;28;20122;-74
2021/03/31 12:33:16;;;;;;;14.45;3.88;;;27.40;25.30;;;;;;5050917;28;20021;-75
2021/03/31 12:35:42;;;;;;;14.93;4.07;;;27.20;25.50;;;;;;5052824;28;20039;-75
2021/03/31 12:38:08;;;;;;;15.07;4.25;;;27.30;25.90;;;;;;5051716;28;20048;-75
2021/03/31 12:40:33;;;;;;;11.57;4.20;;;27.30;25.90;;;;;;5050898;28;20021;-74
2021/03/31 12:42:59;;;;;;;8.18;3.58;;;27.10;25.50;;;;;;5050284;28;20060;-74
2021/03/31 12:45:25;;;;;;;17.13;3.75;;;26.90;26.00;;;;;;5051455;28;20021;-74
2021/03/31 12:47:51;;;;;;;12.00;3.60;;;26.60;26.30;;;;;;5050808;28;20032;-74
2021/03/31 12:50:17;;;;;;;6.63;3.33;;;26.50;26.60;;;;;;5050291;28;20151;-74
2021/03/31 12:53:06;;;;;;;8.88;3.35;;;26.50;26.60;;;;;;5050513;28;20029;-75
2021/03/31 12:55:37;;;;;;;7.20;3.05;;;26.40;26.10;;;;;;5047830;28;20029;-75
2021/03/31 12:58:05;;;;;;;16.63;3.58;;;26.10;26.00;;;;;;5050677;28;20070;-74
2021/03/31 13:00:31;;;;;;;13.02;4.40;;;25.90;27.00;;;;;;5049670;28;20021;-75
2021/03/31 13:02:57;;;;;;;7.00;4.13;;;25.80;27.80;;;;;;5055036;28;20055;-74
2021/03/31 13:05:23;;;;;;;10.48;3.88;;;25.60;26.90;;;;;;5050603;28;20558;-75
2021/03/31 13:07:49;;;;;;;11.93;3.55;;;25.40;27.00;;;;;;5050439;28;20029;-74
2021/03/31 13:10:15;;;;;;;10.27;3.30;;;25.30;27.50;;;;;;5050285;28;20025;-74
2021/03/31 13:12:49;;;;;;;11.43;3.70;;;25.50;27.60;;;;;;5050277;28;20029;-75
2021/03/31 13:15:42;;;;;;;10.13;3.47;;;25.70;26.70;;;;;;5049831;28;20496;-75
2021/03/31 13:26:20;;;;;;;37.40;5.05;;;25.50;25.50;;;;;;5050305;28;20079;-74